Etusivu
METAR-TAF:

METAR-TAF

Lentoasemat :

N'Djamena, Tšad

N’Djamenan kansainvälinen lentoasema

Leveyspiiri: 12-08N, Pituuspiiri: 015-02E, korkeus merenpinnasta: 295 m

Tämänhetkinen sää

Tämä raportti tehtiin 51 minuuttia sitten, kello 00.00 UTC
tyyntä
Lämpötila 27°C
Kosteus 24%
Ilmanpaine 1008 hPa
Näkyvyys 10 km tai enemmän
ei pilviä alle 1500 m:ssä eikä cumulonimbus-pilviä

METAR: FTTJ 300000Z 00000KT CAVOK 27/05 Q1008 NOSIG

Aika: 01:51 (00:51 UTC)

Sääennuste

Tämä raportti tehtiin 7 tuntia ja 51 minuuttia sitten, kello 17.00 UTC
Ennuste voimassa 29. päivästä klo 18 UTC - 30. päivään klo 24 UTC
Tuuli 6 kn koillisesta
Näkyvyys: 4500 m
usvaa
Ajoittain
30. päivästä klo 08 UTC - 30. päivään klo 16 UTC
Tuuli 12 kn idästä
Näkyvyys 10 km tai enemmän
ei pilviä alle 1500 m:ssä eikä cumulonimbus-pilviä

TAF: FTTJ 291700Z 2918/3024 04006KT 4500 HZ NSC TEMPO 3008/3016 08012KT CAVOK

Säähavainnot ja -ennusteet yli 4000 lentoasemalta (METAR- ja TAF-raportit).

Käytössä olevat sääasemat on merkitty karttaan keltaisilla ja punaisilla pisteillä.

Aseta hiiri pisteen päälle nähdäksesi sääaseman nimen.

Klikkaa sitten nähdäksesi säähavainnot ja -ennusteet.

Kartan vaihtaminen: klikkaa mustalla rastilla varustettuja vihreitä pisteitä, niin voit zoomata sisään; viivalla varustettua vihreää pistettä, niin voit zoomata ulos tai vihreitä nuolia, niin pääset viereisille kartoille.


METAR-TAF: